Time;durP1;ratioP1;P1;durP2;ratioP2;P2;SDS_P1;SDS_P2;PMS_P1;PMS_P2;Temp;Humidity;BMP_temperature;BMP_pressure;BME280_temperature;BME280_humidity;BME280_pressure;Samples;Min_cycle;Max_cycle;Signal;HPM_P1;HPM_P2
2021/05/26 00:01:18;;;;;;;13.90;2.10;;;12.80;92.60;;;;;;5005370;28;21222;-48
2021/05/26 00:03:45;;;;;;;3.80;1.60;;;12.80;92.70;;;;;;5012333;28;20628;-49
2021/05/26 00:06:12;;;;;;;2.43;1.53;;;12.90;92.80;;;;;;5012032;28;20790;-49
2021/05/26 00:08:39;;;;;;;5.50;1.47;;;12.90;92.70;;;;;;5011632;28;20689;-49
2021/05/26 00:11:09;;;;;;;1.60;1.40;;;12.90;92.60;;;;;;5011291;28;20631;-50
2021/05/26 00:13:36;;;;;;;2.40;1.60;;;12.80;92.50;;;;;;5010710;28;20754;-49
2021/05/26 00:16:05;;;;;;;2.27;1.23;;;12.80;92.70;;;;;;5005115;28;20698;-49
2021/05/26 00:18:32;;;;;;;4.83;1.53;;;12.80;92.80;;;;;;5011378;28;20630;-48
2021/05/26 00:20:59;;;;;;;2.80;1.80;;;12.80;92.60;;;;;;4999677;28;20659;-48
2021/05/26 00:23:27;;;;;;;2.47;1.93;;;12.80;92.60;;;;;;5007396;28;20671;-48
2021/05/26 00:25:53;;;;;;;5.60;1.87;;;12.80;92.60;;;;;;5011598;28;20663;-48
2021/05/26 00:28:20;;;;;;;3.63;1.67;;;12.80;92.50;;;;;;5010851;28;21169;-49
2021/05/26 00:30:48;;;;;;;2.80;2.00;;;12.90;92.50;;;;;;5011292;28;20698;-48
2021/05/26 00:33:15;;;;;;;2.30;1.40;;;12.80;92.40;;;;;;5011337;28;20671;-48
2021/05/26 00:35:42;;;;;;;1.87;1.13;;;12.90;92.40;;;;;;5010963;28;20779;-49
2021/05/26 00:38:09;;;;;;;2.90;1.70;;;12.90;92.40;;;;;;5011142;28;20666;-49
2021/05/26 00:40:36;;;;;;;3.00;1.40;;;12.90;92.30;;;;;;5000385;28;20656;-49
2021/05/26 00:43:03;;;;;;;3.43;1.53;;;12.90;92.20;;;;;;4992038;28;20671;-48
2021/05/26 00:45:30;;;;;;;1.53;1.43;;;12.90;92.30;;;;;;4991572;28;21044;-50
2021/05/26 00:47:57;;;;;;;3.30;1.40;;;12.90;92.30;;;;;;4991673;28;20652;-48
2021/05/26 00:50:25;;;;;;;3.10;1.50;;;12.90;92.20;;;;;;5000331;28;21282;-49
2021/05/26 00:52:52;;;;;;;3.10;1.73;;;12.80;92.30;;;;;;5004096;28;20667;-48
2021/05/26 00:55:20;;;;;;;3.33;2.00;;;12.80;92.50;;;;;;4991645;28;21104;-49
2021/05/26 00:57:48;;;;;;;5.40;1.63;;;12.80;92.60;;;;;;4992144;28;20737;-48
2021/05/26 01:00:17;;;;;;;1.53;1.43;;;12.80;92.60;;;;;;5010861;28;21013;-49
2021/05/26 01:02:44;;;;;;;3.20;1.50;;;12.80;92.70;;;;;;5010967;28;20678;-49
2021/05/26 01:05:12;;;;;;;4.30;1.70;;;12.80;92.90;;;;;;5010735;28;20697;-49
2021/05/26 01:07:39;;;;;;;4.97;1.80;;;12.80;92.70;;;;;;4998114;28;21196;-48
2021/05/26 01:10:08;;;;;;;2.63;1.37;;;12.90;92.60;;;;;;4991572;28;20656;-48
2021/05/26 01:12:34;;;;;;;4.30;2.10;;;12.90;92.60;;;;;;4991578;28;20664;-48
2021/05/26 01:15:02;;;;;;;1.90;1.47;;;12.90;92.30;;;;;;4992906;28;20653;-48
2021/05/26 01:17:29;;;;;;;2.60;1.60;;;12.80;92.40;;;;;;4998105;28;21215;-48
2021/05/26 01:19:55;;;;;;;3.30;1.67;;;12.80;92.40;;;;;;5010741;28;20667;-49
2021/05/26 01:22:23;;;;;;;2.63;1.70;;;12.80;92.40;;;;;;5010879;28;20647;-47
2021/05/26 01:24:50;;;;;;;3.03;1.90;;;12.80;92.40;;;;;;5010934;28;20616;-47
2021/05/26 01:27:16;;;;;;;2.63;1.70;;;12.80;92.20;;;;;;5010036;28;20667;-48
2021/05/26 01:29:43;;;;;;;1.93;1.70;;;12.80;92.30;;;;;;5010569;28;20670;-47
2021/05/26 01:32:10;;;;;;;2.07;1.57;;;12.80;92.30;;;;;;5010818;28;20698;-48
2021/05/26 01:34:36;;;;;;;4.10;1.43;;;12.80;92.30;;;;;;5009657;28;21123;-48
2021/05/26 01:37:03;;;;;;;2.13;1.93;;;12.80;92.20;;;;;;5006603;28;20691;-49
2021/05/26 01:39:31;;;;;;;1.20;1.10;;;12.80;92.30;;;;;;5006693;28;20675;-49
2021/05/26 01:41:57;;;;;;;8.30;1.63;;;12.80;92.30;;;;;;5008515;28;20662;-49
2021/05/26 01:44:25;;;;;;;3.17;1.40;;;12.80;92.30;;;;;;5007091;28;20666;-48
2021/05/26 01:46:51;;;;;;;2.07;1.70;;;12.90;92.30;;;;;;4991433;28;21026;-48
2021/05/26 01:49:19;;;;;;;2.10;1.43;;;12.90;92.20;;;;;;4990672;28;20661;-49
2021/05/26 01:51:46;;;;;;;2.30;1.87;;;12.90;92.10;;;;;;5009080;28;21294;-49
2021/05/26 01:54:13;;;;;;;2.70;2.07;;;12.90;92.10;;;;;;5009957;28;20664;-49
2021/05/26 01:56:40;;;;;;;2.20;1.93;;;12.90;92.10;;;;;;5009401;28;20694;-48
2021/05/26 01:59:07;;;;;;;5.97;2.30;;;12.90;92.20;;;;;;4999160;28;20703;-48
2021/05/26 02:01:34;;;;;;;2.07;1.80;;;12.90;92.20;;;;;;4993651;28;20788;-49
2021/05/26 02:04:01;;;;;;;4.13;1.87;;;12.90;92.10;;;;;;5009902;28;20659;-48
2021/05/26 02:06:28;;;;;;;3.30;2.07;;;12.90;92.10;;;;;;5009048;28;21174;-49
2021/05/26 02:08:55;;;;;;;4.30;1.60;;;12.90;92.10;;;;;;5009224;28;20670;-49
2021/05/26 02:14:08;;;;;;;5.83;2.07;;;12.80;92.10;;;;;;4995490;28;21005;-48
2021/05/26 02:16:35;;;;;;;3.47;2.07;;;12.90;92.00;;;;;;4994357;28;20815;-47
2021/05/26 02:19:02;;;;;;;2.60;1.83;;;12.90;91.90;;;;;;4990024;28;20621;-48
2021/05/26 02:21:29;;;;;;;4.53;1.57;;;12.90;91.90;;;;;;4989920;28;20656;-50
2021/05/26 02:23:57;;;;;;;5.53;1.77;;;12.90;91.80;;;;;;4990083;28;20671;-49
2021/05/26 02:26:24;;;;;;;3.03;1.50;;;12.90;91.80;;;;;;5002851;28;20655;-48
2021/05/26 02:28:50;;;;;;;4.00;1.53;;;12.90;91.90;;;;;;5008886;28;20640;-48
2021/05/26 02:31:18;;;;;;;4.33;2.63;;;12.90;92.20;;;;;;5009141;28;21048;-49
2021/05/26 02:33:45;;;;;;;4.10;1.73;;;12.90;91.90;;;;;;5008936;28;20677;-48
2021/05/26 02:36:11;;;;;;;2.90;1.90;;;12.90;91.90;;;;;;5008075;28;20810;-48
2021/05/26 02:38:38;;;;;;;3.03;2.10;;;12.90;91.80;;;;;;5008869;28;20993;-48
2021/05/26 02:41:05;;;;;;;2.97;2.13;;;12.90;91.80;;;;;;4992906;28;20727;-48
2021/05/26 02:43:32;;;;;;;2.27;1.30;;;12.90;91.70;;;;;;4989667;28;20672;-48
2021/05/26 02:45:58;;;;;;;3.40;1.70;;;12.90;91.90;;;;;;4989779;28;20691;-49
2021/05/26 02:48:26;;;;;;;2.03;1.83;;;12.90;91.90;;;;;;4989437;28;20668;-47
2021/05/26 02:50:53;;;;;;;1.70;1.60;;;12.90;92.00;;;;;;5004701;28;20643;-49
2021/05/26 02:53:20;;;;;;;3.17;2.00;;;12.80;92.20;;;;;;5009077;28;20633;-49
2021/05/26 02:55:46;;;;;;;3.67;2.10;;;12.80;92.70;;;;;;5008995;28;20706;-49
2021/05/26 02:58:13;;;;;;;2.43;1.40;;;12.70;92.90;;;;;;5009148;28;20694;-48
2021/05/26 03:00:40;;;;;;;6.00;2.00;;;12.70;93.10;;;;;;5008899;28;20687;-49
2021/05/26 03:03:07;;;;;;;2.97;2.60;;;12.60;93.20;;;;;;5009016;28;20657;-48
2021/05/26 03:05:34;;;;;;;3.93;2.00;;;12.60;93.30;;;;;;5009092;28;20677;-48
2021/05/26 03:08:01;;;;;;;2.07;1.83;;;12.60;93.40;;;;;;4998479;28;20668;-49
2021/05/26 03:10:28;;;;;;;4.37;2.07;;;12.60;93.50;;;;;;4991397;28;20648;-48
2021/05/26 03:12:54;;;;;;;3.30;2.53;;;12.60;93.40;;;;;;5009045;28;21215;-49
2021/05/26 03:15:21;;;;;;;2.63;1.97;;;12.60;93.50;;;;;;5012777;28;20670;-48
2021/05/26 03:17:48;;;;;;;4.37;1.93;;;12.60;93.50;;;;;;5012372;28;20964;-48
2021/05/26 03:20:15;;;;;;;6.60;2.10;;;12.60;93.40;;;;;;5012400;28;20651;-50
2021/05/26 03:22:43;;;;;;;8.00;3.10;;;12.60;93.50;;;;;;5012426;28;21220;-49
2021/05/26 03:25:12;;;;;;;3.70;2.50;;;12.60;93.50;;;;;;5013011;28;20670;-51
2021/05/26 03:27:39;;;;;;;2.90;2.70;;;12.60;93.60;;;;;;5010128;28;21200;-49
2021/05/26 03:30:07;;;;;;;3.40;2.00;;;12.70;93.70;;;;;;5003045;28;21032;-50
2021/05/26 03:32:34;;;;;;;6.00;2.17;;;12.70;93.80;;;;;;5012355;28;20681;-50
2021/05/26 03:35:01;;;;;;;3.70;1.97;;;12.70;93.90;;;;;;5012613;28;20754;-50
2021/05/26 03:37:27;;;;;;;5.30;2.60;;;12.70;93.90;;;;;;5012885;28;20780;-51
2021/05/26 03:39:55;;;;;;;2.70;2.10;;;12.70;93.80;;;;;;5012352;28;20678;-50
2021/05/26 03:42:22;;;;;;;5.70;2.20;;;12.70;93.90;;;;;;5011969;28;20701;-47
2021/05/26 03:44:50;;;;;;;4.70;2.63;;;12.70;94.00;;;;;;5012438;28;20628;-46
2021/05/26 03:47:16;;;;;;;7.07;4.10;;;12.60;94.10;;;;;;4995097;28;20699;-47
2021/05/26 03:49:43;;;;;;;4.10;2.00;;;12.60;94.30;;;;;;4992560;28;20655;-47
2021/05/26 03:52:10;;;;;;;4.97;1.97;;;12.60;94.40;;;;;;4992753;28;20663;-47
2021/05/26 03:54:36;;;;;;;2.77;2.20;;;12.60;94.50;;;;;;4993082;28;20688;-47
2021/05/26 03:57:05;;;;;;;5.77;2.20;;;12.60;94.50;;;;;;5005009;28;20686;-47
2021/05/26 03:59:31;;;;;;;4.10;2.40;;;12.50;94.50;;;;;;5010852;28;20765;-49
2021/05/26 04:01:58;;;;;;;4.77;2.50;;;12.50;94.50;;;;;;5012323;28;20693;-48
2021/05/26 04:04:25;;;;;;;3.10;2.23;;;12.40;94.80;;;;;;5012053;28;20635;-50
2021/05/26 04:06:52;;;;;;;5.40;3.33;;;12.40;94.90;;;;;;5009039;28;20692;-49
2021/05/26 04:09:20;;;;;;;4.23;2.23;;;12.50;94.90;;;;;;4992166;28;20726;-48
2021/05/26 04:11:46;;;;;;;3.80;2.47;;;12.40;95.10;;;;;;4992605;28;20963;-49
2021/05/26 04:14:14;;;;;;;3.70;2.43;;;12.50;95.00;;;;;;4992707;28;20660;-48
2021/05/26 04:16:41;;;;;;;3.43;2.23;;;12.60;95.00;;;;;;5002782;28;20680;-47
2021/05/26 04:19:07;;;;;;;4.07;2.60;;;12.50;94.90;;;;;;4992223;28;21191;-47
2021/05/26 04:21:34;;;;;;;5.30;2.60;;;12.50;94.90;;;;;;4992513;28;20664;-48
2021/05/26 04:24:01;;;;;;;3.30;2.70;;;12.50;95.00;;;;;;5001545;28;20937;-49
2021/05/26 04:26:27;;;;;;;3.20;2.70;;;12.50;94.90;;;;;;4999360;28;20703;-48
2021/05/26 04:28:54;;;;;;;3.57;2.60;;;12.50;95.00;;;;;;4992834;28;20671;-49
2021/05/26 04:31:22;;;;;;;3.20;2.90;;;12.50;95.10;;;;;;5003261;28;20954;-49
2021/05/26 04:33:49;;;;;;;4.40;2.47;;;12.50;95.10;;;;;;5011001;28;20667;-49
2021/05/26 04:36:16;;;;;;;5.33;2.80;;;12.60;95.10;;;;;;5007082;28;20699;-49
2021/05/26 04:38:42;;;;;;;4.50;2.57;;;12.60;95.00;;;;;;5009839;28;21054;-49
2021/05/26 04:41:09;;;;;;;7.57;2.50;;;12.60;95.00;;;;;;5012187;28;20639;-49
2021/05/26 04:43:36;;;;;;;2.80;2.20;;;12.60;95.10;;;;;;5011295;28;21035;-49
2021/05/26 04:46:04;;;;;;;3.80;2.40;;;12.50;94.80;;;;;;5005618;28;20687;-49
2021/05/26 04:48:32;;;;;;;2.87;2.57;;;12.50;94.90;;;;;;5009337;28;20658;-49
2021/05/26 04:50:58;;;;;;;4.87;2.57;;;12.50;95.10;;;;;;5007196;28;20697;-49
2021/05/26 04:53:25;;;;;;;2.47;2.10;;;12.50;95.10;;;;;;5008615;28;20668;-49
2021/05/26 04:55:52;;;;;;;4.67;2.37;;;12.50;95.10;;;;;;5003893;28;21095;-49
2021/05/26 04:58:18;;;;;;;5.20;2.97;;;12.50;95.00;;;;;;4999782;28;20627;-49
2021/05/26 05:00:45;;;;;;;5.83;2.67;;;12.50;95.20;;;;;;5010925;28;20762;-48
2021/05/26 05:03:12;;;;;;;3.23;2.13;;;12.50;95.30;;;;;;5011569;28;21282;-48
2021/05/26 05:05:39;;;;;;;2.70;2.20;;;12.60;95.20;;;;;;5010735;28;20674;-48
2021/05/26 05:08:07;;;;;;;3.57;2.20;;;12.60;95.00;;;;;;5009371;28;20789;-49
2021/05/26 05:10:34;;;;;;;3.00;2.07;;;12.60;94.90;;;;;;5011350;28;21219;-49
2021/05/26 05:13:01;;;;;;;4.43;2.50;;;12.60;94.90;;;;;;5010666;28;21227;-48
2021/05/26 05:15:27;;;;;;;4.30;2.07;;;12.60;95.20;;;;;;5016002;28;20695;-49
2021/05/26 05:17:54;;;;;;;3.83;1.80;;;12.60;94.90;;;;;;5009994;28;21184;-49
2021/05/26 05:20:21;;;;;;;4.53;3.03;;;12.60;94.90;;;;;;5001178;28;20687;-49
2021/05/26 05:22:49;;;;;;;7.87;2.33;;;12.60;94.90;;;;;;4999740;28;20706;-49
2021/05/26 05:25:15;;;;;;;4.03;2.70;;;12.60;94.90;;;;;;5003423;28;20687;-49
2021/05/26 05:27:42;;;;;;;3.77;2.73;;;12.60;94.90;;;;;;5010676;28;20667;-51
2021/05/26 05:30:10;;;;;;;2.70;1.70;;;12.60;95.00;;;;;;5009965;28;20664;-50
2021/05/26 05:32:36;;;;;;;6.60;2.50;;;12.60;94.90;;;;;;5008089;28;20653;-49
2021/05/26 05:35:04;;;;;;;4.60;3.10;;;12.60;95.00;;;;;;5009434;28;20697;-49
2021/05/26 05:37:30;;;;;;;7.77;2.63;;;12.60;95.10;;;;;;5010041;28;20638;-48
2021/05/26 05:39:58;;;;;;;4.77;2.07;;;12.50;95.00;;;;;;5010630;28;20696;-49
2021/05/26 05:42:26;;;;;;;5.97;3.20;;;12.50;95.20;;;;;;5006238;28;20671;-49
2021/05/26 05:44:53;;;;;;;6.03;2.50;;;12.50;95.20;;;;;;4989060;28;20617;-49
2021/05/26 05:47:19;;;;;;;4.37;2.97;;;12.50;95.40;;;;;;4990022;28;20656;-49
2021/05/26 05:49:46;;;;;;;4.50;2.73;;;12.50;95.50;;;;;;5004690;28;20643;-49
2021/05/26 05:52:13;;;;;;;3.97;2.43;;;12.50;95.60;;;;;;5005629;28;21230;-50
2021/05/26 05:54:40;;;;;;;13.30;2.83;;;12.50;95.60;;;;;;4990603;28;20681;-49
2021/05/26 05:57:08;;;;;;;2.50;2.30;;;12.50;95.80;;;;;;4992017;28;20706;-50
2021/05/26 05:59:35;;;;;;;4.60;2.77;;;12.50;95.90;;;;;;4990341;28;20657;-52
2021/05/26 06:02:01;;;;;;;4.80;2.17;;;12.50;95.80;;;;;;4994133;28;20672;-50
2021/05/26 06:04:28;;;;;;;3.70;2.37;;;12.50;95.90;;;;;;5006659;28;20638;-49
2021/05/26 06:06:55;;;;;;;5.13;1.90;;;12.50;95.80;;;;;;4990402;28;20658;-49
2021/05/26 06:09:22;;;;;;;4.27;2.20;;;12.40;96.00;;;;;;4990553;28;20630;-50
2021/05/26 06:11:48;;;;;;;7.10;2.90;;;12.50;96.00;;;;;;4993673;28;20654;-50
2021/05/26 06:14:18;;;;;;;8.00;3.00;;;12.50;96.10;;;;;;5010396;28;20635;-50
2021/05/26 06:16:45;;;;;;;5.07;3.30;;;12.40;96.20;;;;;;5009638;28;20701;-50
2021/05/26 06:19:12;;;;;;;9.67;2.70;;;12.50;96.30;;;;;;5009470;28;20659;-50
2021/05/26 06:21:39;;;;;;;3.80;2.40;;;12.50;96.40;;;;;;4998447;28;20915;-50
2021/05/26 06:24:06;;;;;;;5.73;2.43;;;12.50;96.40;;;;;;4990352;28;20652;-49
2021/05/26 06:26:33;;;;;;;10.70;3.60;;;12.40;96.70;;;;;;4990746;28;20727;-49
2021/05/26 06:29:01;;;;;;;5.60;2.20;;;12.40;96.90;;;;;;4991018;28;20629;-50
2021/05/26 06:31:29;;;;;;;4.00;2.23;;;12.40;97.10;;;;;;4990647;28;21207;-49
2021/05/26 06:33:56;;;;;;;7.00;2.97;;;12.40;97.20;;;;;;4998942;28;20663;-48
2021/05/26 06:36:23;;;;;;;8.13;3.67;;;12.40;97.30;;;;;;4996030;28;20970;-49
2021/05/26 06:38:49;;;;;;;5.07;3.37;;;12.40;97.40;;;;;;4989833;28;20664;-48
2021/05/26 06:41:16;;;;;;;5.63;3.20;;;12.40;97.40;;;;;;4989812;28;21059;-49
2021/05/26 06:43:43;;;;;;;4.03;2.67;;;12.40;97.30;;;;;;4989938;28;20663;-49
2021/05/26 06:46:09;;;;;;;4.23;2.93;;;12.30;97.60;;;;;;5001687;28;20651;-49
2021/05/26 06:48:37;;;;;;;5.70;3.50;;;12.30;97.70;;;;;;5013475;28;21099;-49
2021/05/26 06:51:04;;;;;;;3.93;2.83;;;12.30;97.90;;;;;;5012089;28;21172;-50
2021/05/26 06:53:31;;;;;;;3.47;3.00;;;12.30;98.00;;;;;;5014246;28;20671;-50
2021/05/26 06:55:58;;;;;;;5.40;2.93;;;12.40;98.10;;;;;;5007946;28;21122;-49
2021/05/26 06:58:24;;;;;;;5.30;2.90;;;12.50;98.20;;;;;;5001348;28;21220;-50
2021/05/26 07:00:51;;;;;;;2.40;1.60;;;12.50;98.10;;;;;;4996021;28;21186;-50
2021/05/26 07:03:18;;;;;;;3.73;2.37;;;12.60;98.00;;;;;;5006594;28;20737;-49
2021/05/26 07:05:45;;;;;;;4.60;2.13;;;12.60;97.90;;;;;;5015021;28;20777;-48
2021/05/26 07:08:13;;;;;;;3.70;2.47;;;12.60;98.00;;;;;;5015129;28;20728;-49
2021/05/26 07:10:40;;;;;;;3.27;2.30;;;12.70;98.10;;;;;;5015652;28;20677;-50
2021/05/26 07:13:07;;;;;;;3.50;2.80;;;12.80;98.00;;;;;;5015796;28;21058;-49
2021/05/26 07:15:34;;;;;;;4.17;3.00;;;12.90;97.90;;;;;;5015276;28;20729;-48
2021/05/26 07:18:04;;;;;;;5.67;3.87;;;12.90;97.80;;;;;;5011733;28;20646;-49
2021/05/26 07:20:31;;;;;;;4.97;3.10;;;13.00;97.70;;;;;;5004426;28;20624;-49
2021/05/26 07:22:58;;;;;;;5.70;2.43;;;13.00;97.60;;;;;;5014784;28;20701;-48
2021/05/26 07:25:25;;;;;;;3.53;2.80;;;13.10;97.90;;;;;;5015660;28;20682;-48
2021/05/26 07:27:52;;;;;;;6.17;2.60;;;13.10;97.50;;;;;;5015113;28;20986;-49
2021/05/26 07:30:19;;;;;;;3.50;2.60;;;13.20;97.40;;;;;;5014975;28;20656;-49
2021/05/26 07:32:47;;;;;;;1.77;1.60;;;13.20;97.20;;;;;;5015472;28;20667;-49
2021/05/26 07:35:14;;;;;;;3.53;2.57;;;13.10;97.00;;;;;;5015117;28;20706;-49
2021/05/26 07:37:41;;;;;;;6.10;3.27;;;13.10;97.10;;;;;;5015805;28;20984;-50
2021/05/26 07:40:09;;;;;;;3.50;2.73;;;13.10;97.20;;;;;;5014609;28;20627;-50
2021/05/26 07:42:37;;;;;;;6.67;2.30;;;13.10;97.00;;;;;;5015878;28;20670;-48
2021/05/26 07:45:04;;;;;;;4.97;2.60;;;13.10;96.70;;;;;;5014684;28;20660;-48
2021/05/26 07:47:30;;;;;;;3.50;2.70;;;13.10;96.70;;;;;;5014392;28;21215;-49
2021/05/26 07:49:57;;;;;;;9.50;2.47;;;13.10;96.70;;;;;;5012992;28;20627;-48
2021/05/26 07:52:26;;;;;;;4.20;2.70;;;13.20;96.40;;;;;;5006145;28;20693;-48
2021/05/26 07:54:53;;;;;;;3.70;2.40;;;13.20;96.10;;;;;;5003209;28;20671;-49
2021/05/26 07:57:21;;;;;;;5.63;2.53;;;13.20;96.30;;;;;;5014008;28;20628;-50
2021/05/26 07:59:48;;;;;;;4.13;2.37;;;13.30;96.20;;;;;;5007139;28;20999;-49
2021/05/26 08:02:15;;;;;;;4.50;2.30;;;13.30;96.00;;;;;;4995683;28;20668;-49
2021/05/26 08:04:42;;;;;;;2.90;1.70;;;13.40;95.70;;;;;;4993775;28;20639;-49
2021/05/26 08:07:09;;;;;;;4.40;1.70;;;13.40;95.70;;;;;;4991638;28;21218;-50
2021/05/26 08:09:36;;;;;;;4.60;2.10;;;13.40;95.60;;;;;;4992234;28;20655;-48
2021/05/26 08:12:02;;;;;;;8.20;2.30;;;13.40;95.80;;;;;;4992484;28;20660;-50
2021/05/26 08:14:31;;;;;;;4.40;2.50;;;13.30;95.60;;;;;;4993465;28;20656;-50
2021/05/26 08:16:58;;;;;;;3.53;2.20;;;13.30;95.90;;;;;;5005175;28;20712;-49
2021/05/26 08:19:25;;;;;;;8.27;3.57;;;13.30;96.00;;;;;;5009732;28;21266;-49
2021/05/26 08:21:52;;;;;;;5.97;2.50;;;13.30;96.10;;;;;;4991855;28;20671;-49
2021/05/26 08:24:19;;;;;;;1.60;1.13;;;13.40;96.20;;;;;;5004428;28;20636;-49
2021/05/26 08:26:45;;;;;;;9.17;3.13;;;13.40;95.80;;;;;;5007615;28;20687;-50
2021/05/26 08:29:12;;;;;;;3.47;2.10;;;13.40;95.80;;;;;;4997473;28;20667;-50
2021/05/26 08:31:40;;;;;;;3.40;2.30;;;13.50;95.70;;;;;;5011642;28;20638;-49
2021/05/26 08:34:07;;;;;;;5.80;2.60;;;13.50;95.70;;;;;;5011464;28;20647;-49
2021/05/26 08:36:33;;;;;;;7.17;2.23;;;13.50;95.80;;;;;;4997679;28;20700;-49
2021/05/26 08:39:00;;;;;;;1.90;1.27;;;13.40;95.60;;;;;;5001240;28;20670;-50
2021/05/26 08:41:28;;;;;;;3.03;1.97;;;13.50;95.50;;;;;;4997654;28;20664;-49
2021/05/26 08:43:55;;;;;;;2.67;1.60;;;13.50;95.50;;;;;;4991864;28;20702;-50
2021/05/26 08:46:22;;;;;;;3.57;2.13;;;13.50;95.70;;;;;;4995520;28;20690;-50
2021/05/26 08:48:51;;;;;;;5.10;2.27;;;13.50;95.60;;;;;;5001031;28;20662;-49
2021/05/26 08:51:20;;;;;;;4.83;2.83;;;13.50;95.70;;;;;;5011409;28;21141;-50
2021/05/26 08:53:47;;;;;;;4.00;2.17;;;13.60;95.60;;;;;;5011535;28;20652;-49
2021/05/26 08:56:14;;;;;;;4.33;2.37;;;13.50;95.60;;;;;;5011144;28;20730;-49
2021/05/26 08:58:41;;;;;;;5.30;2.47;;;13.50;95.90;;;;;;5009962;28;20660;-50
2021/05/26 09:01:08;;;;;;;2.70;1.70;;;13.40;96.00;;;;;;5009295;28;20667;-48
2021/05/26 09:03:35;;;;;;;5.23;2.20;;;13.40;96.20;;;;;;5007998;28;20633;-49
2021/05/26 09:06:05;;;;;;;4.37;1.80;;;13.40;96.30;;;;;;4992133;28;20695;-49
2021/05/26 09:08:32;;;;;;;5.70;2.10;;;13.30;96.40;;;;;;4991315;28;20665;-49
2021/05/26 09:10:59;;;;;;;5.60;3.20;;;13.30;96.40;;;;;;4998427;28;20648;-49
2021/05/26 09:13:30;;;;;;;2.80;2.60;;;13.40;96.40;;;;;;5011023;28;20683;-49
2021/05/26 09:15:57;;;;;;;11.37;2.53;;;13.40;96.50;;;;;;5010720;28;20722;-48
2021/05/26 09:18:24;;;;;;;2.87;2.57;;;13.50;96.40;;;;;;5010273;28;20904;-48
2021/05/26 09:20:50;;;;;;;2.80;2.13;;;13.50;96.50;;;;;;5003942;28;20637;-49
2021/05/26 09:23:19;;;;;;;2.70;1.70;;;13.50;96.60;;;;;;4991357;28;21255;-48
2021/05/26 09:25:53;;;;;;;2.33;1.77;;;13.60;96.10;;;;;;4991491;28;20684;-49
2021/05/26 09:28:30;;;;;;;4.90;1.97;;;13.50;96.00;;;;;;4991277;28;20690;-49
2021/05/26 09:31:03;;;;;;;3.57;1.50;;;13.50;95.80;;;;;;4996064;28;20655;-49
2021/05/26 09:33:32;;;;;;;3.77;1.70;;;13.60;95.80;;;;;;5005703;28;20659;-48
2021/05/26 09:36:20;;;;;;;4.50;2.00;;;13.70;95.60;;;;;;5009628;28;21257;-49
2021/05/26 09:38:50;;;;;;;3.40;2.23;;;13.60;95.30;;;;;;4995316;28;20668;-49
2021/05/26 09:41:20;;;;;;;6.13;2.37;;;13.70;95.50;;;;;;4992865;28;20759;-48
2021/05/26 09:43:48;;;;;;;3.37;1.43;;;13.70;95.60;;;;;;5010712;28;20958;-48
2021/05/26 09:46:22;;;;;;;2.87;2.10;;;13.70;95.60;;;;;;5010645;28;20676;-50
2021/05/26 09:49:02;;;;;;;2.17;1.70;;;13.70;95.80;;;;;;5010098;28;20628;-49
2021/05/26 09:51:29;;;;;;;6.07;2.50;;;13.70;96.00;;;;;;4990560;28;20667;-50
2021/05/26 09:54:14;;;;;;;2.97;2.73;;;13.70;96.10;;;;;;4997452;28;21174;-49
2021/05/26 09:56:41;;;;;;;1.90;1.80;;;13.80;96.20;;;;;;5010266;28;20700;-48
2021/05/26 09:59:07;;;;;;;3.07;2.80;;;13.80;96.40;;;;;;4990270;28;20688;-49
2021/05/26 10:01:35;;;;;;;6.27;3.33;;;13.70;96.30;;;;;;4990507;28;20629;-48
2021/05/26 10:04:01;;;;;;;4.83;3.50;;;13.70;96.60;;;;;;5000750;28;21224;-50
2021/05/26 10:06:29;;;;;;;3.00;2.70;;;13.60;97.20;;;;;;5000203;28;20756;-50
2021/05/26 10:08:56;;;;;;;4.33;2.87;;;13.60;97.60;;;;;;4990199;28;20660;-50
2021/05/26 10:11:25;;;;;;;8.00;3.10;;;13.60;97.70;;;;;;4990889;28;20664;-50
2021/05/26 10:13:52;;;;;;;3.37;2.97;;;13.50;97.90;;;;;;5001942;28;20739;-49
2021/05/26 10:16:19;;;;;;;6.40;3.37;;;13.50;97.90;;;;;;5009461;28;20699;-49
2021/05/26 10:18:45;;;;;;;2.77;2.57;;;13.60;98.10;;;;;;5009824;28;20631;-48
2021/05/26 10:21:13;;;;;;;4.53;2.60;;;13.60;98.00;;;;;;5010477;28;20626;-50
2021/05/26 10:23:41;;;;;;;3.17;2.33;;;13.60;97.90;;;;;;5001984;28;20708;-51
2021/05/26 10:26:07;;;;;;;4.67;2.63;;;13.50;97.90;;;;;;4990306;28;20684;-50
2021/05/26 10:28:35;;;;;;;3.77;2.83;;;13.40;98.10;;;;;;4990312;28;20699;-49
2021/05/26 10:31:03;;;;;;;5.77;4.10;;;13.40;98.20;;;;;;4991040;28;20628;-49
2021/05/26 10:33:49;;;;;;;8.63;2.80;;;13.30;98.40;;;;;;5004113;28;21216;-49
2021/05/26 10:36:16;;;;;;;2.70;2.50;;;13.30;98.60;;;;;;5009737;28;20699;-49
2021/05/26 10:38:56;;;;;;;3.17;2.80;;;13.40;98.90;;;;;;4999107;28;20703;-50
2021/05/26 10:41:23;;;;;;;3.40;2.60;;;13.40;98.70;;;;;;4990062;28;20648;-50
2021/05/26 10:43:54;;;;;;;2.90;2.07;;;13.50;98.70;;;;;;4989987;28;20685;-49
2021/05/26 10:46:34;;;;;;;4.40;3.03;;;13.50;98.70;;;;;;4990029;28;21050;-50
2021/05/26 10:49:19;;;;;;;3.40;3.10;;;13.40;98.50;;;;;;5001571;28;20675;-50
2021/05/26 10:52:07;;;;;;;2.80;2.50;;;13.50;98.70;;;;;;5009957;28;20628;-49
2021/05/26 10:55:04;;;;;;;2.30;2.10;;;13.40;98.70;;;;;;5009960;28;21246;-49
2021/05/26 10:57:31;;;;;;;4.20;2.90;;;13.50;98.90;;;;;;5009819;28;20730;-50
2021/05/26 11:00:22;;;;;;;2.70;2.37;;;13.50;98.60;;;;;;5008898;28;20643;-50
2021/05/26 11:03:29;;;;;;;3.17;2.87;;;13.50;98.70;;;;;;5007744;28;20631;-50
2021/05/26 11:05:56;;;;;;;10.03;3.47;;;13.50;98.80;;;;;;4989860;28;20648;-50
2021/05/26 11:08:45;;;;;;;6.10;2.73;;;13.50;98.90;;;;;;4989417;28;21055;-50
2021/05/26 11:11:40;;;;;;;3.37;2.70;;;13.60;98.80;;;;;;4987358;28;20633;-50
2021/05/26 11:14:24;;;;;;;3.30;2.67;;;13.60;98.80;;;;;;4989688;28;21020;-49
2021/05/26 11:17:19;;;;;;;2.40;2.10;;;13.60;98.60;;;;;;4988192;28;20688;-50
2021/05/26 11:19:46;;;;;;;3.10;2.20;;;13.60;98.70;;;;;;4989331;28;20655;-49
2021/05/26 11:22:15;;;;;;;7.63;4.03;;;13.60;98.90;;;;;;4988766;28;20674;-49
2021/05/26 11:24:43;;;;;;;3.63;2.73;;;13.60;98.90;;;;;;4989467;28;20640;-50
2021/05/26 11:27:15;;;;;;;3.87;2.13;;;13.60;98.90;;;;;;4989006;28;20719;-50
2021/05/26 11:29:41;;;;;;;2.33;2.13;;;13.70;99.00;;;;;;5003520;28;21172;-50
2021/05/26 11:32:09;;;;;;;3.17;2.00;;;13.70;98.80;;;;;;5008983;28;20763;-50
2021/05/26 11:34:36;;;;;;;2.63;1.90;;;13.70;98.80;;;;;;5009979;28;20651;-51
2021/05/26 11:37:03;;;;;;;2.87;2.50;;;13.60;99.00;;;;;;5004618;28;21312;-49
2021/05/26 11:39:32;;;;;;;3.50;2.60;;;13.60;99.00;;;;;;5006794;28;20753;-48
2021/05/26 11:42:09;;;;;;;3.80;1.50;;;13.50;99.10;;;;;;4999624;28;20668;-48
2021/05/26 11:44:36;;;;;;;3.23;2.50;;;13.40;99.10;;;;;;4992662;28;20664;-49
2021/05/26 11:47:03;;;;;;;3.67;2.10;;;13.40;99.10;;;;;;4992876;28;20652;-49
2021/05/26 11:49:32;;;;;;;2.87;2.60;;;13.40;99.30;;;;;;4993050;28;20656;-49
2021/05/26 11:52:03;;;;;;;2.40;2.03;;;13.40;99.30;;;;;;4992944;28;20624;-50
2021/05/26 11:54:29;;;;;;;2.10;1.90;;;13.40;99.30;;;;;;5009241;28;20663;-50
2021/05/26 11:57:00;;;;;;;3.17;2.40;;;13.40;99.30;;;;;;5012550;28;20668;-48
2021/05/26 11:59:28;;;;;;;2.40;2.20;;;13.40;99.40;;;;;;5002020;28;20656;-49
2021/05/26 12:01:55;;;;;;;3.30;2.20;;;13.40;99.40;;;;;;4995558;28;20655;-47
2021/05/26 12:04:22;;;;;;;3.83;2.03;;;13.40;99.50;;;;;;5012660;28;20782;-48
2021/05/26 12:06:49;;;;;;;4.00;2.60;;;13.40;99.40;;;;;;5011357;28;20632;-49
2021/05/26 12:09:27;;;;;;;4.47;2.37;;;13.50;99.40;;;;;;5012032;28;20679;-48
2021/05/26 12:11:53;;;;;;;2.63;2.43;;;13.50;99.40;;;;;;5005262;28;20658;-49
2021/05/26 12:14:27;;;;;;;5.40;2.33;;;13.50;99.40;;;;;;4992548;28;20755;-48
2021/05/26 12:16:54;;;;;;;2.67;2.47;;;13.60;99.50;;;;;;5002528;28;20706;-48
2021/05/26 12:19:27;;;;;;;2.63;1.80;;;13.60;99.40;;;;;;5014128;28;20655;-49
2021/05/26 12:22:07;;;;;;;3.93;2.50;;;13.60;99.40;;;;;;5020585;28;20663;-51
2021/05/26 12:24:50;;;;;;;2.20;2.00;;;13.60;99.40;;;;;;5012239;28;20771;-49
2021/05/26 12:27:30;;;;;;;2.00;1.77;;;13.80;99.40;;;;;;4992848;28;20645;-49
2021/05/26 12:30:08;;;;;;;1.90;1.80;;;13.80;99.10;;;;;;5009500;28;20615;-51
2021/05/26 12:32:35;;;;;;;1.87;1.70;;;13.80;99.10;;;;;;5013042;28;21133;-49
2021/05/26 12:35:02;;;;;;;2.77;1.80;;;13.90;98.80;;;;;;5011794;28;20631;-49
2021/05/26 12:37:38;;;;;;;2.13;1.93;;;13.90;98.70;;;;;;5017374;28;20705;-49
2021/05/26 12:40:07;;;;;;;2.03;1.70;;;13.80;99.00;;;;;;5031636;28;20634;-49
2021/05/26 12:42:38;;;;;;;5.20;2.50;;;13.80;99.30;;;;;;5030343;28;20638;-50
2021/05/26 12:45:20;;;;;;;4.17;1.60;;;13.80;99.20;;;;;;5030976;28;21062;-49
2021/05/26 12:47:47;;;;;;;1.87;1.77;;;13.90;99.30;;;;;;5014615;28;20659;-49
2021/05/26 12:50:15;;;;;;;1.70;1.60;;;13.90;99.10;;;;;;5011226;28;20628;-50
2021/05/26 12:52:42;;;;;;;3.10;2.30;;;13.90;98.90;;;;;;5011359;28;20658;-50
2021/05/26 12:55:11;;;;;;;2.80;2.00;;;13.90;98.90;;;;;;5010613;28;20647;-49